Time;durP1;ratioP1;P1;durP2;ratioP2;P2;SDS_P1;SDS_P2;PMS_P1;PMS_P2;Temp;Humidity;BMP_temperature;BMP_pressure;BME280_temperature;BME280_humidity;BME280_pressure;Samples;Min_cycle;Max_cycle;Signal;HPM_P1;HPM_P2
2022/09/14 00:00:27;;;;;;;0.10;0.10;;;;;;;9.91;84.85;98806.34;5006501;28;20077;-69
2022/09/14 00:02:54;;;;;;;0.10;0.10;;;;;;;9.90;84.84;98813.72;5009368;28;20045;-69
2022/09/14 00:05:20;;;;;;;0.10;0.10;;;;;;;9.88;85.19;98807.75;4987937;28;20049;-65
2022/09/14 00:07:47;;;;;;;0.32;0.10;;;;;;;9.90;85.24;98811.00;5006903;28;20069;-66
2022/09/14 00:10:13;;;;;;;0.10;0.10;;;;;;;9.92;85.35;98807.97;5005431;28;20074;-66
2022/09/14 00:12:39;;;;;;;0.03;0.03;;;;;;;9.91;85.54;98809.09;4989139;28;20061;-66
2022/09/14 00:15:06;;;;;;;0.10;0.10;;;;;;;9.92;85.30;98797.88;4972862;28;20054;-67
2022/09/14 00:17:32;;;;;;;0.10;0.10;;;;;;;9.93;85.52;98799.50;5005559;28;20093;-68
2022/09/14 00:20:01;;;;;;;0.10;0.10;;;;;;;9.78;85.34;98772.41;5005264;28;20517;-65
2022/09/14 00:22:29;;;;;;;0.10;0.10;;;;;;;10.00;85.47;98795.59;4989560;28;20540;-65
2022/09/14 00:24:55;;;;;;;0.10;0.10;;;;;;;10.04;85.21;98796.59;4988108;28;20050;-65
2022/09/14 00:27:22;;;;;;;0.20;0.10;;;;;;;10.08;85.21;98798.47;4989231;28;20065;-68
2022/09/14 00:29:48;;;;;;;0.10;0.10;;;;;;;10.09;84.92;98799.28;5005512;28;20092;-68
2022/09/14 00:32:14;;;;;;;0.10;0.10;;;;;;;10.06;85.13;98797.13;4973738;28;20062;-69
2022/09/14 00:34:40;;;;;;;0.10;0.10;;;;;;;10.05;85.02;98790.03;4970381;28;20046;-68
2022/09/14 00:37:08;;;;;;;0.25;0.20;;;;;;;10.06;85.15;98786.19;5006935;28;20517;-66
2022/09/14 00:39:33;;;;;;;0.10;0.10;;;;;;;10.08;84.93;98794.94;5004197;28;20104;-67
2022/09/14 00:42:00;;;;;;;0.10;0.10;;;;;;;10.09;84.83;98780.16;4988901;28;20046;-66
2022/09/14 00:44:58;;;;;;;0.10;0.10;;;;;;;10.06;85.00;98784.28;5005969;28;20141;-65
2022/09/14 00:47:25;;;;;;;0.10;0.10;;;;;;;10.05;84.88;98788.13;5004515;28;20077;-65
2022/09/14 00:49:51;;;;;;;0.03;0.03;;;;;;;10.02;85.21;98786.00;5006394;28;20061;-68
2022/09/14 00:52:23;;;;;;;0.10;0.10;;;;;;;10.00;85.19;98776.47;4987243;28;20050;-67
2022/09/14 00:54:52;;;;;;;0.10;0.10;;;;;;;10.05;85.18;98773.66;5006046;28;20073;-68
2022/09/14 00:57:19;;;;;;;0.10;0.10;;;;;;;10.09;85.14;98774.69;5004406;28;20056;-67
2022/09/14 00:59:47;;;;;;;0.10;0.10;;;;;;;10.13;85.04;98769.44;4984897;28;20537;-67
2022/09/14 01:02:14;;;;;;;0.10;0.10;;;;;;;10.09;84.90;98758.31;5002526;28;20046;-67
2022/09/14 01:04:41;;;;;;;0.10;0.10;;;;;;;10.11;84.72;98761.56;5003353;28;20060;-67
2022/09/14 01:07:16;;;;;;;0.10;0.10;;;;;;;10.12;84.71;98757.72;4974260;28;20390;-66
2022/09/14 01:09:54;;;;;;;0.10;0.10;;;;;;;10.08;84.92;98754.75;5004872;28;20084;-66
2022/09/14 01:12:28;;;;;;;0.10;0.10;;;;;;;10.12;84.90;98763.19;5005615;28;20056;-63
2022/09/14 01:15:02;;;;;;;0.10;0.10;;;;;;;10.11;84.99;98760.72;4988395;28;20543;-65
2022/09/14 01:17:38;;;;;;;0.10;0.10;;;;;;;10.12;84.94;98754.97;4974786;28;20057;-65
2022/09/14 01:20:19;;;;;;;0.10;0.10;;;;;;;10.11;84.78;98742.44;4988371;28;20089;-65
2022/09/14 01:22:51;;;;;;;0.10;0.10;;;;;;;10.11;84.67;98755.28;5007220;28;20065;-65
2022/09/14 01:25:34;;;;;;;0.10;0.10;;;;;;;10.01;84.80;98742.59;5006520;28;20076;-64
2022/09/14 01:28:04;;;;;;;0.10;0.10;;;;;;;10.04;85.04;98748.28;5005190;28;20097;-66
2022/09/14 01:30:33;;;;;;;0.10;0.10;;;;;;;10.05;85.06;98754.53;4991599;28;20505;-65
2022/09/14 01:33:07;;;;;;;0.10;0.10;;;;;;;10.06;85.13;98751.53;5003977;28;20080;-65
2022/09/14 01:35:38;;;;;;;0.10;0.10;;;;;;;10.07;85.23;98749.59;5001398;28;20058;-68
2022/09/14 01:38:08;;;;;;;0.10;0.10;;;;;;;10.07;85.17;98738.69;5003263;28;20372;-68
2022/09/14 01:40:38;;;;;;;0.10;0.10;;;;;;;10.06;85.28;98747.97;4987915;28;20058;-68
2022/09/14 01:43:09;;;;;;;0.10;0.10;;;;;;;10.05;85.41;98743.59;5003135;28;20082;-67
2022/09/14 01:45:40;;;;;;;0.10;0.10;;;;;;;10.04;85.43;98729.16;5003837;28;20058;-68
2022/09/14 01:48:10;;;;;;;0.10;0.10;;;;;;;10.02;85.64;98736.84;4987434;28;20166;-67
2022/09/14 01:50:39;;;;;;;0.10;0.10;;;;;;;10.00;85.79;98727.31;5005085;28;20045;-67
2022/09/14 01:53:08;;;;;;;0.10;0.10;;;;;;;9.99;85.80;98737.44;4985927;28;20229;-67
2022/09/14 01:55:39;;;;;;;0.10;0.10;;;;;;;9.97;86.07;98733.38;4984986;28;20049;-67
2022/09/14 01:58:11;;;;;;;0.10;0.10;;;;;;;9.98;86.21;98735.00;5004288;28;20406;-68
2022/09/14 02:00:41;;;;;;;0.10;0.10;;;;;;;9.98;86.38;98719.41;4972749;28;20042;-66
2022/09/14 02:03:12;;;;;;;0.10;0.10;;;;;;;10.01;86.49;98718.00;5004849;28;20123;-66
2022/09/14 02:05:43;;;;;;;0.10;0.10;;;;;;;10.06;86.44;98713.28;4984835;28;20153;-67
2022/09/14 02:08:09;;;;;;;0.10;0.10;;;;;;;10.08;86.20;98710.25;5003807;28;20132;-67
2022/09/14 02:10:36;;;;;;;0.10;0.10;;;;;;;10.08;86.18;98713.00;5002420;28;20492;-68
2022/09/14 02:13:02;;;;;;;0.10;0.10;;;;;;;10.04;86.27;98703.75;5003156;28;20547;-65
2022/09/14 02:15:30;;;;;;;0.10;0.10;;;;;;;9.95;86.59;98703.63;4986124;28;20312;-66
2022/09/14 02:17:56;;;;;;;0.10;0.10;;;;;;;9.98;86.86;98702.22;4986907;28;20057;-65
2022/09/14 02:20:27;;;;;;;0.10;0.10;;;;;;;9.98;87.10;98705.75;5003036;28;20072;-65
2022/09/14 02:22:54;;;;;;;0.00;0.00;;;;;;;10.00;87.06;98705.47;5004796;28;20073;-68
2022/09/14 02:25:20;;;;;;;0.10;0.10;;;;;;;9.98;87.16;98704.97;4984815;28;20421;-68
2022/09/14 02:27:48;;;;;;;0.10;0.10;;;;;;;9.97;87.18;98704.13;5003188;28;20406;-66
2022/09/14 02:30:14;;;;;;;;;;;;;;;9.95;87.33;98700.91;5002876;28;20481;-66
2022/09/14 02:32:49;;;;;;;0.10;0.10;;;;;;;9.92;87.48;98694.13;4984794;28;20388;-68
2022/09/14 02:35:21;;;;;;;0.10;0.10;;;;;;;9.92;87.71;98698.75;4967905;28;20618;-68
2022/09/14 02:37:55;;;;;;;0.00;0.00;;;;;;;9.91;87.71;98705.34;4987711;28;20120;-68
2022/09/14 02:40:31;;;;;;;0.10;0.10;;;;;;;9.88;87.93;98693.06;4987263;28;20060;-67
2022/09/14 02:43:14;;;;;;;0.03;0.03;;;;;;;9.87;88.38;98690.66;5004757;28;20042;-65
2022/09/14 02:45:47;;;;;;;0.10;0.10;;;;;;;9.87;88.39;98699.66;5002750;28;20042;-67
2022/09/14 02:48:21;;;;;;;0.10;0.10;;;;;;;9.75;88.52;98678.28;4983050;28;20061;-66
2022/09/14 02:50:55;;;;;;;0.10;0.10;;;;;;;9.87;88.61;98686.00;5002792;28;20049;-68
2022/09/14 02:53:27;;;;;;;0.10;0.10;;;;;;;9.90;88.77;98690.84;5003196;28;20050;-68
2022/09/14 02:55:57;;;;;;;0.10;0.10;;;;;;;9.89;88.67;98689.25;5000572;28;20049;-68
2022/09/14 02:58:23;;;;;;;0.10;0.10;;;;;;;9.89;88.79;98696.63;4999617;28;20054;-68
2022/09/14 03:00:50;;;;;;;0.10;0.10;;;;;;;9.85;89.02;98688.22;5005286;28;20049;-68
2022/09/14 03:03:19;;;;;;;0.10;0.10;;;;;;;9.89;89.03;98678.31;5003342;28;20174;-68
2022/09/14 03:05:45;;;;;;;0.10;0.10;;;;;;;9.93;89.05;98686.72;5007169;28;20493;-68
2022/09/14 03:08:12;;;;;;;0.10;0.10;;;;;;;9.97;88.91;98678.75;4985814;28;20046;-68
2022/09/14 03:10:41;;;;;;;0.10;0.10;;;;;;;9.99;88.87;98677.38;4985263;28;20048;-67
2022/09/14 03:13:07;;;;;;;0.10;0.10;;;;;;;9.98;88.81;98678.44;4967929;28;20054;-68
2022/09/14 03:15:34;;;;;;;0.10;0.10;;;;;;;9.97;88.79;98676.03;5002582;28;20142;-69
2022/09/14 03:18:00;;;;;;;0.10;0.10;;;;;;;9.98;88.83;98672.97;4985127;28;20042;-68
2022/09/14 03:20:30;;;;;;;0.10;0.10;;;;;;;10.01;88.85;98677.88;5002340;28;20048;-68
2022/09/14 03:22:57;;;;;;;0.10;0.10;;;;;;;10.01;88.87;98675.16;4987175;28;20060;-68
2022/09/14 03:25:24;;;;;;;0.10;0.10;;;;;;;9.98;88.80;98675.72;4989227;28;20079;-68
2022/09/14 03:27:52;;;;;;;0.10;0.10;;;;;;;9.95;88.87;98668.13;5010354;28;20053;-67
2022/09/14 03:30:19;;;;;;;0.10;0.10;;;;;;;9.96;88.92;98667.00;5007240;28;20057;-68
2022/09/14 03:32:45;;;;;;;0.10;0.10;;;;;;;9.85;88.99;98646.47;4989689;28;20088;-68
2022/09/14 03:35:11;;;;;;;0.10;0.10;;;;;;;10.02;88.84;98665.00;4989303;28;20069;-68
2022/09/14 03:37:40;;;;;;;0.10;0.10;;;;;;;10.06;88.70;98664.13;5005797;28;20038;-67
2022/09/14 03:40:09;;;;;;;0.10;0.10;;;;;;;10.10;88.61;98658.88;4987271;28;20480;-68
2022/09/14 03:42:35;;;;;;;0.10;0.10;;;;;;;10.05;88.72;98651.59;4971493;28;20042;-68
2022/09/14 03:45:01;;;;;;;0.10;0.10;;;;;;;10.06;88.81;98660.56;5005233;28;20068;-68
2022/09/14 03:47:28;;;;;;;0.10;0.10;;;;;;;10.04;89.04;98657.31;5007779;28;20064;-66
2022/09/14 03:49:54;;;;;;;0.10;0.10;;;;;;;10.04;88.99;98658.16;5004729;28;20054;-67
2022/09/14 03:52:20;;;;;;;0.10;0.10;;;;;;;10.04;89.03;98651.88;4973562;28;20153;-67
2022/09/14 03:54:47;;;;;;;0.10;0.10;;;;;;;10.04;89.26;98660.06;4988283;28;20140;-69
2022/09/14 03:57:15;;;;;;;0.10;0.10;;;;;;;10.02;89.41;98657.66;5007183;28;20153;-68
2022/09/14 03:59:41;;;;;;;0.10;0.10;;;;;;;10.05;89.35;98657.03;5006864;28;20046;-68
2022/09/14 04:02:06;;;;;;;0.10;0.10;;;;;;;10.06;89.40;98661.38;5004475;28;20277;-65
2022/09/14 04:04:32;;;;;;;0.10;0.10;;;;;;;10.07;89.41;98659.50;5008069;28;20054;-66
2022/09/14 04:06:58;;;;;;;0.10;0.10;;;;;;;10.08;89.16;98661.91;5011487;28;20046;-65
2022/09/14 04:09:24;;;;;;;0.10;0.10;;;;;;;10.09;89.26;98670.91;5010057;28;20045;-65
2022/09/14 04:11:52;;;;;;;0.10;0.10;;;;;;;10.11;89.14;98657.78;4990466;28;20105;-65
2022/09/14 04:14:18;;;;;;;0.10;0.10;;;;;;;10.15;88.94;98650.59;5005915;28;20048;-65
2022/09/14 04:16:44;;;;;;;0.00;0.00;;;;;;;10.18;88.78;98655.44;4987254;28;20052;-65
2022/09/14 04:19:11;;;;;;;0.10;0.10;;;;;;;10.21;88.47;98648.59;4988482;28;20050;-65
2022/09/14 04:21:37;;;;;;;0.10;0.10;;;;;;;10.24;88.26;98647.19;5004455;28;20052;-65
2022/09/14 04:24:04;;;;;;;0.10;0.10;;;;;;;10.29;88.07;98639.69;5004891;28;20111;-65
2022/09/14 04:26:30;;;;;;;0.10;0.10;;;;;;;10.27;87.87;98641.09;5006039;28;20037;-64
2022/09/14 04:28:58;;;;;;;0.10;0.10;;;;;;;10.32;87.55;98641.00;4987565;28;20046;-65
2022/09/14 04:31:24;;;;;;;0.10;0.10;;;;;;;10.36;87.62;98651.03;4656095;28;10000280;-65
2022/09/14 04:33:53;;;;;;;0.10;0.10;;;;;;;10.38;87.54;98658.13;5001848;28;20053;-65
2022/09/14 04:36:21;;;;;;;0.10;0.10;;;;;;;10.41;87.30;98660.28;4983436;28;20733;-66
2022/09/14 04:38:51;;;;;;;0.10;0.10;;;;;;;10.45;87.31;98653.09;5002831;28;20466;-66
2022/09/14 04:41:21;;;;;;;0.10;0.10;;;;;;;10.52;87.00;98650.78;4999653;28;20053;-65
2022/09/14 04:43:49;;;;;;;0.10;0.10;;;;;;;10.54;86.72;98650.50;5005230;28;20053;-65
2022/09/14 04:46:19;;;;;;;0.10;0.10;;;;;;;10.60;86.41;98646.53;5003817;28;20065;-65
2022/09/14 04:48:46;;;;;;;0.10;0.10;;;;;;;10.63;86.43;98648.66;4981922;28;20508;-65
2022/09/14 04:51:17;;;;;;;0.10;0.10;;;;;;;10.65;86.11;98657.34;5006038;28;20136;-65
2022/09/14 04:53:44;;;;;;;0.10;0.10;;;;;;;10.67;86.03;98660.59;4986632;28;20308;-65
2022/09/14 04:56:12;;;;;;;0.10;0.10;;;;;;;10.67;85.83;98659.81;4987463;28;20440;-65
2022/09/14 04:58:41;;;;;;;0.10;0.10;;;;;;;10.69;85.58;98655.63;5005195;28;20535;-65
2022/09/14 05:01:11;;;;;;;0.10;0.10;;;;;;;10.72;85.58;98659.69;5007632;28;20057;-69
2022/09/14 05:03:41;;;;;;;0.10;0.10;;;;;;;10.77;85.67;98663.13;5005070;28;20052;-65
2022/09/14 05:06:10;;;;;;;0.10;0.10;;;;;;;10.83;85.23;98663.84;4968948;28;20582;-65
2022/09/14 05:08:37;;;;;;;0.10;0.10;;;;;;;10.67;84.94;98621.53;4983053;28;20567;-65
2022/09/14 05:11:05;;;;;;;0.20;0.20;;;;;;;10.92;84.73;98656.53;5000657;28;20073;-67
2022/09/14 05:13:32;;;;;;;0.10;0.10;;;;;;;10.93;84.82;98662.84;4997198;28;20292;-68
2022/09/14 05:16:05;;;;;;;0.10;0.10;;;;;;;10.91;84.77;98656.84;4976162;28;20046;-68
2022/09/14 05:18:31;;;;;;;0.10;0.10;;;;;;;10.88;84.61;98665.69;4991549;28;20046;-68
2022/09/14 05:21:01;;;;;;;0.60;0.10;;;;;;;10.87;84.62;98664.06;4990874;28;20283;-68
2022/09/14 05:23:27;;;;;;;0.10;0.10;;;;;;;10.87;84.96;98667.59;4995550;28;20054;-68
2022/09/14 05:25:53;;;;;;;0.10;0.10;;;;;;;10.89;84.92;98673.56;4994474;28;20042;-69
2022/09/14 05:28:20;;;;;;;0.10;0.10;;;;;;;10.91;84.92;98665.84;4992392;28;20153;-68
2022/09/14 05:30:45;;;;;;;0.10;0.10;;;;;;;11.00;84.74;98665.16;4991957;28;20046;-69
2022/09/14 05:33:12;;;;;;;0.10;0.10;;;;;;;11.06;84.38;98664.75;4999946;28;20061;-68
2022/09/14 05:35:38;;;;;;;0.10;0.10;;;;;;;11.05;84.41;98665.88;4995496;28;20485;-68
2022/09/14 05:38:05;;;;;;;0.10;0.10;;;;;;;11.03;84.24;98648.94;4980016;28;20058;-68
2022/09/14 05:40:31;;;;;;;0.17;0.17;;;;;;;11.03;84.03;98656.34;5000995;28;20046;-68
2022/09/14 05:42:57;;;;;;;0.38;0.10;;;;;;;11.01;84.28;98661.31;4982727;28;20142;-68
2022/09/14 05:45:23;;;;;;;0.10;0.10;;;;;;;10.92;84.21;98650.28;4989957;28;20056;-65
2022/09/14 05:47:49;;;;;;;0.10;0.10;;;;;;;10.93;84.33;98660.09;5005998;28;20509;-65
2022/09/14 05:50:15;;;;;;;0.00;0.00;;;;;;;10.91;84.46;98654.13;4986391;28;20063;-65
2022/09/14 05:52:42;;;;;;;0.10;0.10;;;;;;;10.89;84.50;98661.81;5002567;28;20148;-68
2022/09/14 05:55:09;;;;;;;0.20;0.20;;;;;;;10.87;84.65;98658.59;4986614;28;20073;-68
2022/09/14 05:57:36;;;;;;;0.10;0.10;;;;;;;10.86;84.82;98659.72;4987510;28;20054;-69
2022/09/14 06:00:03;;;;;;;0.10;0.10;;;;;;;10.86;84.54;98657.75;4985828;28;20131;-67
2022/09/14 06:02:38;;;;;;;0.28;0.15;;;;;;;10.91;84.14;98656.84;4987291;28;20060;-68
2022/09/14 06:05:04;;;;;;;0.10;0.10;;;;;;;10.94;84.04;98658.19;4987489;28;20042;-68
2022/09/14 06:07:30;;;;;;;0.38;0.10;;;;;;;10.95;84.13;98655.13;4986823;28;20144;-68
2022/09/14 06:09:57;;;;;;;0.10;0.10;;;;;;;10.97;84.00;98658.38;5004060;28;20049;-68
2022/09/14 06:12:26;;;;;;;0.10;0.10;;;;;;;10.99;83.87;98661.59;5003520;28;20616;-69
2022/09/14 06:14:52;;;;;;;0.10;0.10;;;;;;;11.06;83.95;98658.44;4969501;28;20551;-69
2022/09/14 06:17:18;;;;;;;0.10;0.10;;;;;;;11.12;83.74;98656.41;5002332;28;20060;-69
2022/09/14 06:19:44;;;;;;;0.10;0.10;;;;;;;11.15;83.65;98656.63;5001087;28;20045;-69
2022/09/14 06:22:21;;;;;;;0.10;0.10;;;;;;;11.32;83.30;98668.84;4999267;28;20108;-69
2022/09/14 06:24:48;;;;;;;0.10;0.10;;;;;;;11.49;82.70;98654.53;4950224;28;20066;-66
2022/09/14 06:27:14;;;;;;;0.10;0.10;;;;;;;11.61;81.59;98652.03;5003150;28;20180;-65
2022/09/14 06:29:41;;;;;;;0.10;0.10;;;;;;;11.65;81.12;98649.50;5007244;28;20045;-66
2022/09/14 06:32:07;;;;;;;0.10;0.10;;;;;;;11.62;80.94;98652.84;5006088;28;20535;-67
2022/09/14 06:34:33;;;;;;;0.35;0.17;;;;;;;11.37;80.74;98611.25;5003895;28;20536;-66
2022/09/14 06:37:00;;;;;;;0.38;0.20;;;;;;;11.64;80.70;98650.63;5004184;28;20045;-66
2022/09/14 06:39:26;;;;;;;0.10;0.10;;;;;;;11.79;80.30;98646.72;5002979;28;20053;-67
2022/09/14 06:41:52;;;;;;;0.10;0.10;;;;;;;12.03;79.65;98643.69;5003522;28;20053;-67
2022/09/14 06:44:18;;;;;;;0.25;0.20;;;;;;;12.14;78.87;98644.22;4982791;28;20096;-67
2022/09/14 06:46:46;;;;;;;0.10;0.10;;;;;;;12.19;78.63;98646.03;5006647;28;20123;-67
2022/09/14 06:49:19;;;;;;;0.10;0.10;;;;;;;12.15;78.23;98642.28;5005965;28;20104;-67
2022/09/14 06:51:46;;;;;;;0.13;0.10;;;;;;;12.00;78.40;98641.53;5006896;28;20045;-67
2022/09/14 06:54:14;;;;;;;0.10;0.10;;;;;;;11.90;78.95;98642.59;5003366;28;20069;-65
2022/09/14 06:56:41;;;;;;;0.10;0.10;;;;;;;11.80;79.18;98631.09;5004674;28;20053;-67
2022/09/14 06:59:11;;;;;;;0.10;0.10;;;;;;;11.70;79.45;98643.09;4987202;28;20144;-65
2022/09/14 07:01:38;;;;;;;0.10;0.10;;;;;;;11.62;79.70;98642.69;5005685;28;20049;-65
2022/09/14 07:04:06;;;;;;;0.45;0.10;;;;;;;11.59;79.54;98637.06;5001852;28;20501;-65
2022/09/14 07:06:39;;;;;;;0.10;0.10;;;;;;;11.54;80.03;98640.72;4985951;28;20564;-64
2022/09/14 07:09:05;;;;;;;0.10;0.10;;;;;;;11.52;80.37;98632.00;4986052;28;20074;-64
2022/09/14 07:11:32;;;;;;;0.10;0.10;;;;;;;11.48;80.45;98631.03;4984107;28;21778;-64
2022/09/14 07:13:58;;;;;;;0.10;0.10;;;;;;;11.41;80.84;98642.38;4999206;28;20398;-64
2022/09/14 07:16:24;;;;;;;0.10;0.10;;;;;;;11.33;81.59;98641.19;4984721;28;20137;-64
2022/09/14 07:18:52;;;;;;;0.10;0.10;;;;;;;11.27;82.14;98636.94;4972016;28;20073;-64
2022/09/14 07:21:20;;;;;;;0.10;0.10;;;;;;;11.26;82.64;98642.72;5004223;28;20076;-65
2022/09/14 07:23:47;;;;;;;0.10;0.10;;;;;;;11.25;83.01;98635.66;5004082;28;20048;-67
2022/09/14 07:26:14;;;;;;;;;;;;;;;11.23;83.43;98632.38;5007181;28;20505;-64
2022/09/14 07:28:41;;;;;;;0.10;0.10;;;;;;;11.23;83.55;98630.47;5005718;28;19929;-66
2022/09/14 07:31:14;;;;;;;0.10;0.10;;;;;;;11.30;83.64;98630.84;4988954;28;20607;-67
2022/09/14 07:33:40;;;;;;;0.10;0.10;;;;;;;11.31;84.07;98631.66;5006473;28;20045;-66
2022/09/14 07:36:07;;;;;;;0.10;0.10;;;;;;;11.27;84.56;98628.72;4987475;28;20053;-67
2022/09/14 07:38:35;;;;;;;0.10;0.10;;;;;;;11.20;85.29;98622.88;5000781;28;20090;-64
2022/09/14 07:41:01;;;;;;;0.10;0.10;;;;;;;11.20;85.73;98622.88;4982074;28;20069;-65
2022/09/14 07:43:27;;;;;;;0.10;0.10;;;;;;;11.23;85.82;98625.00;5006429;28;20552;-65
2022/09/14 07:45:53;;;;;;;0.10;0.10;;;;;;;11.22;86.40;98623.38;5007963;28;20108;-65
2022/09/14 07:48:19;;;;;;;0.15;0.10;;;;;;;11.22;86.78;98623.38;5002564;28;20607;-65
2022/09/14 07:50:45;;;;;;;0.10;0.10;;;;;;;11.21;87.02;98627.22;4986451;28;20499;-65
2022/09/14 07:53:11;;;;;;;0.10;0.10;;;;;;;11.19;87.66;98624.00;4984458;28;20054;-64
2022/09/14 07:55:39;;;;;;;0.10;0.10;;;;;;;11.15;87.82;98621.06;4984361;28;20405;-64
2022/09/14 07:58:06;;;;;;;0.10;0.10;;;;;;;11.14;88.04;98621.34;5005103;28;20149;-65
2022/09/14 08:00:32;;;;;;;0.10;0.10;;;;;;;11.13;88.25;98620.56;5003834;28;20561;-64
2022/09/14 08:02:58;;;;;;;0.10;0.10;;;;;;;11.06;88.45;98625.63;5005092;28;20057;-65
2022/09/14 08:05:25;;;;;;;0.20;0.20;;;;;;;11.02;89.06;98619.16;5006253;28;20041;-64
2022/09/14 08:07:54;;;;;;;0.10;0.10;;;;;;;11.06;89.35;98620.16;5004984;28;20042;-64
2022/09/14 08:10:20;;;;;;;0.10;0.10;;;;;;;11.24;89.62;98621.13;4981938;28;20042;-65
2022/09/14 08:12:50;;;;;;;0.17;0.17;;;;;;;11.54;89.34;98623.47;5008607;28;20087;-65
2022/09/14 08:15:16;;;;;;;0.10;0.10;;;;;;;11.87;88.66;98615.81;5007489;28;20140;-65
2022/09/14 08:17:42;;;;;;;0.20;0.20;;;;;;;12.20;87.49;98618.31;5010088;28;20073;-65
2022/09/14 08:20:09;;;;;;;0.10;0.10;;;;;;;12.43;85.94;98615.53;4989620;28;20568;-65
2022/09/14 08:22:35;;;;;;;0.20;0.20;;;;;;;12.57;84.71;98609.91;5007550;28;20046;-66
2022/09/14 08:25:00;;;;;;;0.10;0.10;;;;;;;12.67;84.23;98605.28;5010944;28;20072;-65
2022/09/14 08:27:26;;;;;;;0.25;0.25;;;;;;;12.74;83.67;98605.59;5009069;28;20107;-65
2022/09/14 08:29:54;;;;;;;0.28;0.20;;;;;;;12.82;83.11;98610.31;4991048;28;20395;-65
2022/09/14 08:32:20;;;;;;;0.20;0.20;;;;;;;12.87;82.37;98604.69;5008716;28;20053;-64
2022/09/14 08:34:46;;;;;;;0.20;0.20;;;;;;;13.00;81.71;98602.91;5007725;28;20176;-64
2022/09/14 08:37:13;;;;;;;0.20;0.20;;;;;;;13.15;81.07;98598.09;4973895;28;20557;-64
2022/09/14 08:39:40;;;;;;;0.20;0.20;;;;;;;13.19;80.47;98594.41;5007229;28;20062;-65
2022/09/14 08:42:14;;;;;;;0.10;0.10;;;;;;;13.03;80.01;98602.31;5009293;28;20103;-64
2022/09/14 08:44:43;;;;;;;0.10;0.10;;;;;;;12.67;80.97;98597.06;5010076;28;20052;-65
2022/09/14 08:47:14;;;;;;;0.10;0.10;;;;;;;12.40;81.91;98604.38;5006452;28;20415;-65
2022/09/14 08:49:46;;;;;;;0.10;0.10;;;;;;;12.24;82.74;98598.47;4979092;28;20042;-64
2022/09/14 08:52:23;;;;;;;0.10;0.10;;;;;;;12.23;83.04;98602.34;5008285;28;20046;-64
2022/09/14 08:54:52;;;;;;;0.10;0.10;;;;;;;12.26;83.18;98605.28;5004597;28;20054;-65
2022/09/14 08:57:26;;;;;;;0.10;0.10;;;;;;;12.31;82.93;98596.91;5002089;28;20054;-64
2022/09/14 09:00:02;;;;;;;0.20;0.20;;;;;;;12.42;82.80;98600.19;4980280;28;20113;-66
2022/09/14 09:02:49;;;;;;;0.10;0.10;;;;;;;12.53;82.26;98594.41;4990298;28;20061;-68
2022/09/14 09:05:28;;;;;;;0.20;0.20;;;;;;;12.62;81.72;98606.22;4954668;28;20061;-66
2022/09/14 09:08:01;;;;;;;0.10;0.10;;;;;;;12.58;81.78;98595.09;5005259;28;20045;-66
2022/09/14 09:10:29;;;;;;;0.10;0.10;;;;;;;12.56;81.64;98596.50;5004515;28;20053;-67
2022/09/14 09:12:58;;;;;;;0.10;0.10;;;;;;;12.46;81.52;98570.19;5006233;28;20092;-65
2022/09/14 09:15:28;;;;;;;0.20;0.20;;;;;;;12.79;81.36;98593.69;5006556;28;20517;-65
2022/09/14 09:18:00;;;;;;;0.13;0.13;;;;;;;12.90;80.45;98597.75;5005314;28;20060;-68
2022/09/14 09:20:31;;;;;;;0.10;0.10;;;;;;;12.94;80.04;98601.47;4984492;28;20042;-67
2022/09/14 09:23:09;;;;;;;0.10;0.10;;;;;;;12.88;80.29;98603.56;5001240;28;20050;-71
2022/09/14 09:25:51;;;;;;;0.10;0.10;;;;;;;12.90;80.14;98595.81;4977052;28;20046;-67
2022/09/14 09:28:19;;;;;;;0.10;0.10;;;;;;;12.84;80.37;98594.34;4965242;28;20050;-67
2022/09/14 09:30:45;;;;;;;0.10;0.10;;;;;;;12.75;80.53;98591.59;4986795;28;20050;-67
2022/09/14 09:33:16;;;;;;;0.10;0.10;;;;;;;12.71;80.80;98592.53;4985591;28;20214;-67
2022/09/14 09:35:55;;;;;;;0.10;0.10;;;;;;;12.53;80.94;98570.56;4988748;28;20345;-65
2022/09/14 09:38:27;;;;;;;0.10;0.10;;;;;;;12.56;81.29;98591.84;4983925;28;20046;-67
2022/09/14 09:40:57;;;;;;;0.10;0.10;;;;;;;12.45;81.51;98587.78;4984466;28;20100;-67
2022/09/14 09:43:24;;;;;;;0.10;0.10;;;;;;;12.37;82.05;98591.31;4970634;28;20466;-67
2022/09/14 09:45:55;;;;;;;0.10;0.10;;;;;;;12.25;82.32;98587.22;5004912;28;20137;-65
2022/09/14 09:48:27;;;;;;;0.10;0.10;;;;;;;12.15;82.77;98576.53;4988559;28;20053;-67
2022/09/14 09:51:05;;;;;;;0.15;0.10;;;;;;;12.09;82.92;98578.59;4986354;28;20172;-65
2022/09/14 09:53:35;;;;;;;0.10;0.10;;;;;;;12.04;82.85;98590.50;5003071;28;20050;-65
2022/09/14 09:56:02;;;;;;;0.10;0.10;;;;;;;12.05;83.41;98586.66;4983557;28;20054;-65
2022/09/14 09:58:33;;;;;;;0.10;0.10;;;;;;;12.07;83.20;98582.78;5007788;28;20045;-67
2022/09/14 10:01:02;;;;;;;0.10;0.10;;;;;;;12.09;83.33;98586.00;4988578;28;20092;-65
2022/09/14 10:03:35;;;;;;;0.10;0.10;;;;;;;12.08;83.53;98592.63;4989758;28;20053;-65
2022/09/14 10:06:03;;;;;;;0.10;0.10;;;;;;;12.06;83.44;98592.91;4988534;28;20053;-67
2022/09/14 10:08:33;;;;;;;0.10;0.10;;;;;;;12.06;83.38;98592.91;4988510;28;20050;-67
2022/09/14 10:11:02;;;;;;;0.10;0.10;;;;;;;12.03;83.33;98591.63;5004502;28;20041;-67
2022/09/14 10:13:30;;;;;;;0.10;0.10;;;;;;;12.07;83.66;98599.22;5005767;28;20420;-67
2022/09/14 10:16:12;;;;;;;0.10;0.10;;;;;;;12.09;83.42;98597.75;4954434;28;20049;-67
2022/09/14 10:18:44;;;;;;;0.10;0.10;;;;;;;12.15;83.37;98601.19;4990007;28;20057;-65
2022/09/14 10:21:11;;;;;;;0.10;0.10;;;;;;;12.19;83.55;98592.03;5001305;28;20107;-65
2022/09/14 10:23:38;;;;;;;0.10;0.10;;;;;;;12.16;83.73;98583.63;5000785;28;20100;-65
2022/09/14 10:26:23;;;;;;;0.10;0.10;;;;;;;12.27;83.78;98595.13;4986761;28;20057;-67
2022/09/14 10:28:54;;;;;;;0.10;0.10;;;;;;;12.26;83.48;98586.09;4971773;28;20516;-64
2022/09/14 10:31:29;;;;;;;0.10;0.10;;;;;;;12.29;82.88;98592.88;4968453;28;20058;-66
2022/09/14 10:33:57;;;;;;;0.20;0.20;;;;;;;12.38;82.75;98593.72;4986650;28;20054;-66
2022/09/14 10:36:30;;;;;;;0.20;0.20;;;;;;;12.43;82.21;98590.84;5007039;28;20045;-66
2022/09/14 10:39:07;;;;;;;0.10;0.10;;;;;;;12.41;82.21;98589.53;4986213;28;20108;-66
2022/09/14 10:41:40;;;;;;;0.10;0.10;;;;;;;12.32;82.14;98590.28;5006707;28;20133;-67
2022/09/14 10:44:47;;;;;;;0.10;0.10;;;;;;;12.28;82.27;98591.28;4982519;28;20042;-64
2022/09/14 10:47:39;;;;;;;0.10;0.10;;;;;;;12.29;81.98;98590.94;4995611;28;20141;-64
2022/09/14 10:50:23;;;;;;;0.10;0.10;;;;;;;12.33;82.32;98582.91;5004472;28;20108;-64
2022/09/14 10:53:02;;;;;;;0.10;0.10;;;;;;;12.34;82.50;98593.56;4985153;28;20045;-64
2022/09/14 10:55:41;;;;;;;0.10;0.10;;;;;;;12.39;82.54;98600.81;4998867;28;20132;-67
2022/09/14 10:58:29;;;;;;;0.10;0.10;;;;;;;12.49;82.49;98599.75;4985104;28;20089;-67
2022/09/14 11:01:08;;;;;;;0.10;0.10;;;;;;;12.61;81.93;98594.44;5003251;28;20271;-65
2022/09/14 11:03:52;;;;;;;0.10;0.10;;;;;;;12.76;81.68;98598.69;5008677;28;20103;-67
2022/09/14 11:06:30;;;;;;;0.20;0.20;;;;;;;12.86;80.84;98594.84;4998967;28;20140;-65
2022/09/14 11:09:01;;;;;;;0.10;0.10;;;;;;;12.88;80.63;98592.59;4991617;28;20057;-65
2022/09/14 11:11:45;;;;;;;0.10;0.10;;;;;;;12.90;80.22;98592.28;4989667;28;20054;-64
2022/09/14 11:14:24;;;;;;;0.10;0.10;;;;;;;12.79;79.91;98589.00;5009552;28;20058;-65
2022/09/14 11:17:04;;;;;;;0.10;0.10;;;;;;;12.72;80.07;98597.72;5005175;28;20057;-65
2022/09/14 11:19:40;;;;;;;0.10;0.10;;;;;;;12.73;79.92;98593.84;4983076;28;20291;-64
2022/09/14 11:22:14;;;;;;;0.45;0.20;;;;;;;12.77;79.67;98589.34;4989410;28;20053;-64
2022/09/14 11:24:45;;;;;;;0.20;0.20;;;;;;;13.01;79.53;98592.78;4988243;28;20169;-64
2022/09/14 11:27:22;;;;;;;0.10;0.10;;;;;;;13.27;78.77;98594.75;5002744;28;20056;-65
2022/09/14 11:29:51;;;;;;;0.10;0.10;;;;;;;13.44;77.86;98596.69;4990426;28;20124;-65
2022/09/14 11:32:23;;;;;;;0.20;0.20;;;;;;;13.54;77.63;98590.06;4989076;28;20041;-65
2022/09/14 11:34:53;;;;;;;0.20;0.20;;;;;;;13.61;77.46;98574.72;5005578;28;20050;-65
2022/09/14 11:37:28;;;;;;;0.20;0.20;;;;;;;13.71;77.01;98581.81;4986633;28;20118;-65
2022/09/14 11:40:01;;;;;;;0.22;0.22;;;;;;;13.73;76.48;98585.03;5006206;28;20077;-65
2022/09/14 11:42:34;;;;;;;0.20;0.20;;;;;;;13.78;76.41;98573.06;5007373;28;20460;-65
2022/09/14 11:45:04;;;;;;;0.20;0.20;;;;;;;13.78;76.30;98577.78;5006694;28;20432;-65